sensor_id;sensor_type;location;lat;lon;timestamp;P1;durP1;ratioP1;P2;durP2;ratioP2
19778;SDS011;10049;59.306;18.090;2023-09-18T00:02:12;0.63;;;0.50;;
19778;SDS011;10049;59.306;18.090;2023-09-18T00:04:40;1.08;;;0.60;;
19778;SDS011;10049;59.306;18.090;2023-09-18T00:07:07;0.60;;;0.55;;
19778;SDS011;10049;59.306;18.090;2023-09-18T00:09:36;1.27;;;0.63;;
19778;SDS011;10049;59.306;18.090;2023-09-18T00:12:07;0.60;;;0.60;;
19778;SDS011;10049;59.306;18.090;2023-09-18T00:14:35;1.77;;;0.60;;
19778;SDS011;10049;59.306;18.090;2023-09-18T00:17:03;0.93;;;0.70;;
19778;SDS011;10049;59.306;18.090;2023-09-18T00:19:31;3.83;;;0.60;;
19778;SDS011;10049;59.306;18.090;2023-09-18T00:21:59;0.77;;;0.60;;
19778;SDS011;10049;59.306;18.090;2023-09-18T00:24:27;0.93;;;0.70;;
19778;SDS011;10049;59.306;18.090;2023-09-18T00:26:55;2.45;;;0.63;;
19778;SDS011;10049;59.306;18.090;2023-09-18T00:29:24;1.55;;;0.70;;
19778;SDS011;10049;59.306;18.090;2023-09-18T00:31:52;1.48;;;0.50;;
19778;SDS011;10049;59.306;18.090;2023-09-18T00:34:20;2.53;;;0.60;;
19778;SDS011;10049;59.306;18.090;2023-09-18T00:36:48;1.70;;;0.40;;
19778;SDS011;10049;59.306;18.090;2023-09-18T00:39:15;0.50;;;0.50;;
19778;SDS011;10049;59.306;18.090;2023-09-18T00:41:47;2.83;;;0.60;;
19778;SDS011;10049;59.306;18.090;2023-09-18T00:44:19;1.58;;;0.68;;
19778;SDS011;10049;59.306;18.090;2023-09-18T00:46:49;1.25;;;0.60;;
19778;SDS011;10049;59.306;18.090;2023-09-18T00:49:17;3.03;;;0.55;;
19778;SDS011;10049;59.306;18.090;2023-09-18T00:51:46;3.17;;;0.60;;
19778;SDS011;10049;59.306;18.090;2023-09-18T00:54:15;0.73;;;0.60;;
19778;SDS011;10049;59.306;18.090;2023-09-18T00:56:45;3.55;;;0.70;;
19778;SDS011;10049;59.306;18.090;2023-09-18T00:59:19;1.13;;;0.60;;
19778;SDS011;10049;59.306;18.090;2023-09-18T01:01:49;1.38;;;0.60;;
19778;SDS011;10049;59.306;18.090;2023-09-18T01:04:17;0.95;;;0.60;;
19778;SDS011;10049;59.306;18.090;2023-09-18T01:06:45;0.88;;;0.60;;
19778;SDS011;10049;59.306;18.090;2023-09-18T01:09:14;1.00;;;0.47;;
19778;SDS011;10049;59.306;18.090;2023-09-18T01:11:46;3.88;;;0.70;;
19778;SDS011;10049;59.306;18.090;2023-09-18T01:14:19;0.77;;;0.55;;
19778;SDS011;10049;59.306;18.090;2023-09-18T01:16:50;0.90;;;0.60;;
19778;SDS011;10049;59.306;18.090;2023-09-18T01:19:33;1.67;;;0.70;;
19778;SDS011;10049;59.306;18.090;2023-09-18T01:22:04;1.60;;;0.90;;
19778;SDS011;10049;59.306;18.090;2023-09-18T01:24:35;0.93;;;0.50;;
19778;SDS011;10049;59.306;18.090;2023-09-18T01:27:03;1.30;;;0.50;;
19778;SDS011;10049;59.306;18.090;2023-09-18T01:29:31;2.72;;;0.73;;
19778;SDS011;10049;59.306;18.090;2023-09-18T01:31:58;9.18;;;1.02;;
19778;SDS011;10049;59.306;18.090;2023-09-18T01:34:28;1.70;;;0.70;;
19778;SDS011;10049;59.306;18.090;2023-09-18T01:36:58;4.15;;;0.70;;
19778;SDS011;10049;59.306;18.090;2023-09-18T01:39:29;3.20;;;0.60;;
19778;SDS011;10049;59.306;18.090;2023-09-18T01:42:01;4.35;;;0.70;;
19778;SDS011;10049;59.306;18.090;2023-09-18T01:44:32;1.73;;;0.70;;
19778;SDS011;10049;59.306;18.090;2023-09-18T01:47:02;1.73;;;0.68;;
19778;SDS011;10049;59.306;18.090;2023-09-18T01:49:31;3.20;;;0.80;;
19778;SDS011;10049;59.306;18.090;2023-09-18T01:51:59;5.60;;;0.70;;
19778;SDS011;10049;59.306;18.090;2023-09-18T01:54:28;1.90;;;0.50;;
19778;SDS011;10049;59.306;18.090;2023-09-18T01:56:55;2.55;;;0.85;;
19778;SDS011;10049;59.306;18.090;2023-09-18T01:59:28;3.60;;;0.70;;
19778;SDS011;10049;59.306;18.090;2023-09-18T02:01:55;2.50;;;0.80;;
19778;SDS011;10049;59.306;18.090;2023-09-18T02:04:24;2.03;;;0.60;;
19778;SDS011;10049;59.306;18.090;2023-09-18T02:06:52;7.10;;;0.80;;
19778;SDS011;10049;59.306;18.090;2023-09-18T02:09:20;1.48;;;0.63;;
19778;SDS011;10049;59.306;18.090;2023-09-18T02:11:47;3.88;;;0.80;;
19778;SDS011;10049;59.306;18.090;2023-09-18T02:14:15;1.45;;;0.70;;
19778;SDS011;10049;59.306;18.090;2023-09-18T02:16:44;2.38;;;0.60;;
19778;SDS011;10049;59.306;18.090;2023-09-18T02:19:12;2.90;;;0.82;;
19778;SDS011;10049;59.306;18.090;2023-09-18T02:21:40;4.25;;;0.60;;
19778;SDS011;10049;59.306;18.090;2023-09-18T02:24:08;1.00;;;0.50;;
19778;SDS011;10049;59.306;18.090;2023-09-18T02:26:36;0.82;;;0.65;;
19778;SDS011;10049;59.306;18.090;2023-09-18T02:29:05;2.35;;;0.80;;
19778;SDS011;10049;59.306;18.090;2023-09-18T02:31:36;0.68;;;0.55;;
19778;SDS011;10049;59.306;18.090;2023-09-18T02:34:06;0.75;;;0.40;;
19778;SDS011;10049;59.306;18.090;2023-09-18T02:36:34;0.88;;;0.40;;
19778;SDS011;10049;59.306;18.090;2023-09-18T02:39:03;0.60;;;0.50;;
19778;SDS011;10049;59.306;18.090;2023-09-18T02:41:32;0.82;;;0.43;;
19778;SDS011;10049;59.306;18.090;2023-09-18T02:44:00;0.88;;;0.43;;
19778;SDS011;10049;59.306;18.090;2023-09-18T02:46:29;1.48;;;0.40;;
19778;SDS011;10049;59.306;18.090;2023-09-18T02:48:57;0.93;;;0.50;;
19778;SDS011;10049;59.306;18.090;2023-09-18T02:51:27;0.40;;;0.40;;
19778;SDS011;10049;59.306;18.090;2023-09-18T02:53:56;3.42;;;0.50;;
19778;SDS011;10049;59.306;18.090;2023-09-18T02:56:25;0.68;;;0.50;;
19778;SDS011;10049;59.306;18.090;2023-09-18T02:58:53;1.75;;;0.65;;
19778;SDS011;10049;59.306;18.090;2023-09-18T03:01:21;2.05;;;0.50;;
19778;SDS011;10049;59.306;18.090;2023-09-18T03:03:48;3.85;;;0.50;;
19778;SDS011;10049;59.306;18.090;2023-09-18T03:06:16;0.95;;;0.50;;
19778;SDS011;10049;59.306;18.090;2023-09-18T03:08:45;2.13;;;0.50;;
19778;SDS011;10049;59.306;18.090;2023-09-18T03:11:15;1.25;;;0.52;;
19778;SDS011;10049;59.306;18.090;2023-09-18T03:13:43;0.55;;;0.50;;
19778;SDS011;10049;59.306;18.090;2023-09-18T03:16:11;0.43;;;0.43;;
19778;SDS011;10049;59.306;18.090;2023-09-18T03:18:39;0.50;;;0.50;;
19778;SDS011;10049;59.306;18.090;2023-09-18T03:21:07;1.45;;;0.50;;
19778;SDS011;10049;59.306;18.090;2023-09-18T03:23:35;1.58;;;0.55;;
19778;SDS011;10049;59.306;18.090;2023-09-18T03:26:06;1.10;;;0.50;;
19778;SDS011;10049;59.306;18.090;2023-09-18T03:28:34;0.88;;;0.50;;
19778;SDS011;10049;59.306;18.090;2023-09-18T03:31:01;0.50;;;0.50;;
19778;SDS011;10049;59.306;18.090;2023-09-18T03:33:30;0.40;;;0.40;;
19778;SDS011;10049;59.306;18.090;2023-09-18T03:35:59;0.50;;;0.40;;
19778;SDS011;10049;59.306;18.090;2023-09-18T03:38:30;2.70;;;0.80;;
19778;SDS011;10049;59.306;18.090;2023-09-18T03:41:00;0.82;;;0.50;;
19778;SDS011;10049;59.306;18.090;2023-09-18T03:43:30;0.50;;;0.50;;
19778;SDS011;10049;59.306;18.090;2023-09-18T03:46:03;1.85;;;0.57;;
19778;SDS011;10049;59.306;18.090;2023-09-18T03:48:30;0.50;;;0.50;;
19778;SDS011;10049;59.306;18.090;2023-09-18T03:51:02;2.20;;;0.60;;
19778;SDS011;10049;59.306;18.090;2023-09-18T03:53:31;0.80;;;0.60;;
19778;SDS011;10049;59.306;18.090;2023-09-18T03:55:59;1.02;;;0.60;;
19778;SDS011;10049;59.306;18.090;2023-09-18T03:58:31;0.50;;;0.50;;
19778;SDS011;10049;59.306;18.090;2023-09-18T04:00:58;0.45;;;0.45;;
19778;SDS011;10049;59.306;18.090;2023-09-18T04:03:26;2.40;;;0.50;;
19778;SDS011;10049;59.306;18.090;2023-09-18T04:05:54;1.25;;;0.60;;
19778;SDS011;10049;59.306;18.090;2023-09-18T04:08:22;1.58;;;0.80;;
19778;SDS011;10049;59.306;18.090;2023-09-18T04:10:51;0.82;;;0.68;;
19778;SDS011;10049;59.306;18.090;2023-09-18T04:13:23;2.63;;;0.70;;
19778;SDS011;10049;59.306;18.090;2023-09-18T04:15:52;0.77;;;0.50;;
19778;SDS011;10049;59.306;18.090;2023-09-18T04:18:22;2.05;;;0.70;;
19778;SDS011;10049;59.306;18.090;2023-09-18T04:20:50;0.55;;;0.55;;
19778;SDS011;10049;59.306;18.090;2023-09-18T04:23:18;2.92;;;0.73;;
19778;SDS011;10049;59.306;18.090;2023-09-18T04:25:46;0.50;;;0.50;;
19778;SDS011;10049;59.306;18.090;2023-09-18T04:28:15;1.02;;;0.57;;
19778;SDS011;10049;59.306;18.090;2023-09-18T04:30:43;0.68;;;0.60;;
19778;SDS011;10049;59.306;18.090;2023-09-18T04:33:16;1.15;;;0.55;;
19778;SDS011;10049;59.306;18.090;2023-09-18T04:35:46;0.75;;;0.50;;
19778;SDS011;10049;59.306;18.090;2023-09-18T04:38:14;1.10;;;0.45;;
19778;SDS011;10049;59.306;18.090;2023-09-18T04:40:57;1.58;;;0.45;;
19778;SDS011;10049;59.306;18.090;2023-09-18T04:43:25;0.93;;;0.50;;
19778;SDS011;10049;59.306;18.090;2023-09-18T04:45:54;0.60;;;0.60;;
19778;SDS011;10049;59.306;18.090;2023-09-18T04:48:24;0.75;;;0.50;;
19778;SDS011;10049;59.306;18.090;2023-09-18T04:50:52;0.68;;;0.57;;
19778;SDS011;10049;59.306;18.090;2023-09-18T04:53:20;1.17;;;0.85;;
19778;SDS011;10049;59.306;18.090;2023-09-18T04:55:49;4.28;;;0.60;;
19778;SDS011;10049;59.306;18.090;2023-09-18T04:58:19;0.77;;;0.50;;
19778;SDS011;10049;59.306;18.090;2023-09-18T05:00:52;4.03;;;0.68;;
19778;SDS011;10049;59.306;18.090;2023-09-18T05:03:25;1.10;;;0.70;;
19778;SDS011;10049;59.306;18.090;2023-09-18T05:05:55;0.95;;;0.60;;
19778;SDS011;10049;59.306;18.090;2023-09-18T05:08:23;0.75;;;0.75;;
19778;SDS011;10049;59.306;18.090;2023-09-18T05:10:53;0.63;;;0.60;;
19778;SDS011;10049;59.306;18.090;2023-09-18T05:13:20;0.85;;;0.68;;
19778;SDS011;10049;59.306;18.090;2023-09-18T05:15:48;1.15;;;0.60;;
19778;SDS011;10049;59.306;18.090;2023-09-18T05:18:15;1.85;;;0.52;;
19778;SDS011;10049;59.306;18.090;2023-09-18T05:20:45;2.15;;;0.50;;
19778;SDS011;10049;59.306;18.090;2023-09-18T05:23:15;3.50;;;0.70;;
19778;SDS011;10049;59.306;18.090;2023-09-18T05:25:43;1.55;;;0.60;;
19778;SDS011;10049;59.306;18.090;2023-09-18T05:28:12;0.77;;;0.40;;
19778;SDS011;10049;59.306;18.090;2023-09-18T05:30:40;2.05;;;0.70;;
19778;SDS011;10049;59.306;18.090;2023-09-18T05:33:07;1.30;;;0.40;;
19778;SDS011;10049;59.306;18.090;2023-09-18T05:35:39;1.00;;;0.50;;
19778;SDS011;10049;59.306;18.090;2023-09-18T05:38:12;1.23;;;0.50;;
19778;SDS011;10049;59.306;18.090;2023-09-18T05:40:40;1.13;;;0.30;;
19778;SDS011;10049;59.306;18.090;2023-09-18T05:43:08;0.40;;;0.40;;
19778;SDS011;10049;59.306;18.090;2023-09-18T05:45:35;0.50;;;0.50;;
19778;SDS011;10049;59.306;18.090;2023-09-18T05:48:03;0.40;;;0.40;;
19778;SDS011;10049;59.306;18.090;2023-09-18T05:50:32;0.52;;;0.40;;
19778;SDS011;10049;59.306;18.090;2023-09-18T05:53:00;2.55;;;0.73;;
19778;SDS011;10049;59.306;18.090;2023-09-18T05:55:30;2.00;;;0.40;;
19778;SDS011;10049;59.306;18.090;2023-09-18T05:57:58;0.88;;;0.40;;
19778;SDS011;10049;59.306;18.090;2023-09-18T06:00:25;2.58;;;0.50;;
19778;SDS011;10049;59.306;18.090;2023-09-18T06:02:55;1.55;;;0.43;;
19778;SDS011;10049;59.306;18.090;2023-09-18T06:05:25;2.50;;;0.45;;
19778;SDS011;10049;59.306;18.090;2023-09-18T06:07:56;0.65;;;0.40;;
19778;SDS011;10049;59.306;18.090;2023-09-18T06:10:24;4.57;;;0.50;;
19778;SDS011;10049;59.306;18.090;2023-09-18T06:12:53;1.75;;;0.50;;
19778;SDS011;10049;59.306;18.090;2023-09-18T06:15:20;4.78;;;0.40;;
19778;SDS011;10049;59.306;18.090;2023-09-18T06:17:48;0.40;;;0.40;;
19778;SDS011;10049;59.306;18.090;2023-09-18T06:20:17;1.00;;;0.50;;
19778;SDS011;10049;59.306;18.090;2023-09-18T06:22:45;3.15;;;0.60;;
19778;SDS011;10049;59.306;18.090;2023-09-18T06:25:13;1.40;;;0.43;;
19778;SDS011;10049;59.306;18.090;2023-09-18T06:27:41;2.42;;;0.40;;
19778;SDS011;10049;59.306;18.090;2023-09-18T06:30:11;0.68;;;0.50;;
19778;SDS011;10049;59.306;18.090;2023-09-18T06:32:39;1.38;;;0.30;;
19778;SDS011;10049;59.306;18.090;2023-09-18T06:35:08;1.58;;;0.40;;
19778;SDS011;10049;59.306;18.090;2023-09-18T06:37:35;0.35;;;0.35;;
19778;SDS011;10049;59.306;18.090;2023-09-18T06:40:03;0.70;;;0.40;;
19778;SDS011;10049;59.306;18.090;2023-09-18T06:42:31;1.15;;;0.60;;
19778;SDS011;10049;59.306;18.090;2023-09-18T06:44:59;1.30;;;0.50;;
19778;SDS011;10049;59.306;18.090;2023-09-18T06:47:33;0.60;;;0.30;;
19778;SDS011;10049;59.306;18.090;2023-09-18T06:50:00;1.10;;;0.40;;
19778;SDS011;10049;59.306;18.090;2023-09-18T06:52:30;2.42;;;0.40;;
19778;SDS011;10049;59.306;18.090;2023-09-18T06:54:57;0.43;;;0.43;;
19778;SDS011;10049;59.306;18.090;2023-09-18T06:57:26;1.00;;;0.40;;
19778;SDS011;10049;59.306;18.090;2023-09-18T06:59:54;0.35;;;0.32;;
19778;SDS011;10049;59.306;18.090;2023-09-18T07:02:22;0.40;;;0.30;;
19778;SDS011;10049;59.306;18.090;2023-09-18T07:04:51;0.28;;;0.20;;
19778;SDS011;10049;59.306;18.090;2023-09-18T07:07:19;1.52;;;0.50;;
19778;SDS011;10049;59.306;18.090;2023-09-18T07:09:50;0.98;;;0.40;;
19778;SDS011;10049;59.306;18.090;2023-09-18T07:12:18;0.50;;;0.40;;
19778;SDS011;10049;59.306;18.090;2023-09-18T07:14:46;1.55;;;0.38;;
19778;SDS011;10049;59.306;18.090;2023-09-18T07:17:13;0.98;;;0.50;;
19778;SDS011;10049;59.306;18.090;2023-09-18T07:19:42;0.73;;;0.30;;
19778;SDS011;10049;59.306;18.090;2023-09-18T07:22:11;0.40;;;0.40;;
19778;SDS011;10049;59.306;18.090;2023-09-18T07:24:39;0.75;;;0.40;;
19778;SDS011;10049;59.306;18.090;2023-09-18T07:27:10;0.77;;;0.50;;
19778;SDS011;10049;59.306;18.090;2023-09-18T07:29:38;0.22;;;0.22;;
19778;SDS011;10049;59.306;18.090;2023-09-18T07:32:06;1.35;;;0.40;;
19778;SDS011;10049;59.306;18.090;2023-09-18T07:34:34;0.75;;;0.40;;
19778;SDS011;10049;59.306;18.090;2023-09-18T07:37:02;0.75;;;0.40;;
19778;SDS011;10049;59.306;18.090;2023-09-18T07:39:32;1.63;;;0.35;;
19778;SDS011;10049;59.306;18.090;2023-09-18T07:42:00;2.95;;;0.30;;
19778;SDS011;10049;59.306;18.090;2023-09-18T07:44:29;0.65;;;0.38;;
19778;SDS011;10049;59.306;18.090;2023-09-18T07:46:57;1.90;;;0.40;;
19778;SDS011;10049;59.306;18.090;2023-09-18T07:49:26;1.40;;;0.40;;
19778;SDS011;10049;59.306;18.090;2023-09-18T07:51:54;1.05;;;0.28;;
19778;SDS011;10049;59.306;18.090;2023-09-18T07:54:21;0.52;;;0.50;;
19778;SDS011;10049;59.306;18.090;2023-09-18T07:56:54;0.50;;;0.32;;
19778;SDS011;10049;59.306;18.090;2023-09-18T07:59:23;0.47;;;0.30;;
19778;SDS011;10049;59.306;18.090;2023-09-18T08:01:53;0.95;;;0.40;;
19778;SDS011;10049;59.306;18.090;2023-09-18T08:04:20;0.77;;;0.30;;
19778;SDS011;10049;59.306;18.090;2023-09-18T08:06:48;0.73;;;0.40;;
19778;SDS011;10049;59.306;18.090;2023-09-18T08:09:16;0.20;;;0.20;;
19778;SDS011;10049;59.306;18.090;2023-09-18T08:11:44;3.33;;;0.50;;
19778;SDS011;10049;59.306;18.090;2023-09-18T08:14:14;0.85;;;0.30;;
19778;SDS011;10049;59.306;18.090;2023-09-18T08:16:42;0.82;;;0.40;;
19778;SDS011;10049;59.306;18.090;2023-09-18T08:19:09;0.65;;;0.32;;
19778;SDS011;10049;59.306;18.090;2023-09-18T08:21:37;0.82;;;0.38;;
19778;SDS011;10049;59.306;18.090;2023-09-18T08:24:06;1.75;;;0.40;;
19778;SDS011;10049;59.306;18.090;2023-09-18T08:26:34;0.77;;;0.30;;
19778;SDS011;10049;59.306;18.090;2023-09-18T08:29:03;0.30;;;0.30;;
19778;SDS011;10049;59.306;18.090;2023-09-18T08:31:32;0.57;;;0.32;;
19778;SDS011;10049;59.306;18.090;2023-09-18T08:34:00;0.50;;;0.40;;
19778;SDS011;10049;59.306;18.090;2023-09-18T08:36:27;0.90;;;0.30;;
19778;SDS011;10049;59.306;18.090;2023-09-18T08:38:57;1.02;;;0.50;;
19778;SDS011;10049;59.306;18.090;2023-09-18T08:41:24;0.40;;;0.30;;
19778;SDS011;10049;59.306;18.090;2023-09-18T08:43:54;0.50;;;0.40;;
19778;SDS011;10049;59.306;18.090;2023-09-18T08:46:24;1.08;;;0.40;;
19778;SDS011;10049;59.306;18.090;2023-09-18T08:48:53;0.32;;;0.30;;
19778;SDS011;10049;59.306;18.090;2023-09-18T08:51:21;2.17;;;0.30;;
19778;SDS011;10049;59.306;18.090;2023-09-18T08:53:50;0.40;;;0.30;;
19778;SDS011;10049;59.306;18.090;2023-09-18T08:56:18;0.57;;;0.30;;
19778;SDS011;10049;59.306;18.090;2023-09-18T08:58:49;2.75;;;0.38;;
19778;SDS011;10049;59.306;18.090;2023-09-18T09:01:18;0.38;;;0.38;;
19778;SDS011;10049;59.306;18.090;2023-09-18T09:03:47;0.30;;;0.30;;
19778;SDS011;10049;59.306;18.090;2023-09-18T09:06:16;0.90;;;0.40;;
19778;SDS011;10049;59.306;18.090;2023-09-18T09:08:44;0.73;;;0.20;;
19778;SDS011;10049;59.306;18.090;2023-09-18T09:11:12;0.30;;;0.30;;
19778;SDS011;10049;59.306;18.090;2023-09-18T09:13:39;2.10;;;0.50;;
19778;SDS011;10049;59.306;18.090;2023-09-18T09:16:07;0.30;;;0.20;;
19778;SDS011;10049;59.306;18.090;2023-09-18T09:18:46;0.30;;;0.30;;
19778;SDS011;10049;59.306;18.090;2023-09-18T09:21:19;0.30;;;0.30;;
19778;SDS011;10049;59.306;18.090;2023-09-18T09:23:47;0.82;;;0.45;;
19778;SDS011;10049;59.306;18.090;2023-09-18T09:26:17;1.75;;;0.40;;
19778;SDS011;10049;59.306;18.090;2023-09-18T09:28:45;0.60;;;0.30;;
19778;SDS011;10049;59.306;18.090;2023-09-18T09:31:23;2.55;;;0.30;;
19778;SDS011;10049;59.306;18.090;2023-09-18T09:33:52;0.40;;;0.40;;
19778;SDS011;10049;59.306;18.090;2023-09-18T09:36:22;2.60;;;0.30;;
19778;SDS011;10049;59.306;18.090;2023-09-18T09:38:54;1.27;;;0.60;;
19778;SDS011;10049;59.306;18.090;2023-09-18T09:41:23;0.60;;;0.30;;
19778;SDS011;10049;59.306;18.090;2023-09-18T09:43:52;0.30;;;0.30;;
19778;SDS011;10049;59.306;18.090;2023-09-18T09:46:22;0.45;;;0.40;;
19778;SDS011;10049;59.306;18.090;2023-09-18T09:48:57;0.40;;;0.30;;
19778;SDS011;10049;59.306;18.090;2023-09-18T09:51:28;0.98;;;0.30;;
19778;SDS011;10049;59.306;18.090;2023-09-18T09:53:56;0.60;;;0.40;;
19778;SDS011;10049;59.306;18.090;2023-09-18T09:56:41;1.33;;;0.50;;
19778;SDS011;10049;59.306;18.090;2023-09-18T09:59:10;2.15;;;0.35;;
19778;SDS011;10049;59.306;18.090;2023-09-18T10:01:38;0.50;;;0.30;;
19778;SDS011;10049;59.306;18.090;2023-09-18T10:04:08;0.70;;;0.32;;
19778;SDS011;10049;59.306;18.090;2023-09-18T10:06:42;1.38;;;0.30;;
19778;SDS011;10049;59.306;18.090;2023-09-18T10:09:11;0.30;;;0.30;;
19778;SDS011;10049;59.306;18.090;2023-09-18T10:11:40;1.58;;;0.38;;
19778;SDS011;10049;59.306;18.090;2023-09-18T10:14:09;0.40;;;0.30;;
19778;SDS011;10049;59.306;18.090;2023-09-18T10:16:41;2.75;;;0.55;;
19778;SDS011;10049;59.306;18.090;2023-09-18T10:19:12;0.73;;;0.40;;
19778;SDS011;10049;59.306;18.090;2023-09-18T10:21:47;3.92;;;0.55;;
19778;SDS011;10049;59.306;18.090;2023-09-18T10:24:20;0.28;;;0.28;;
19778;SDS011;10049;59.306;18.090;2023-09-18T10:26:54;0.50;;;0.40;;
19778;SDS011;10049;59.306;18.090;2023-09-18T10:29:23;0.60;;;0.40;;
19778;SDS011;10049;59.306;18.090;2023-09-18T10:31:51;0.52;;;0.40;;
19778;SDS011;10049;59.306;18.090;2023-09-18T10:34:19;1.13;;;0.35;;
19778;SDS011;10049;59.306;18.090;2023-09-18T10:36:52;0.68;;;0.40;;
19778;SDS011;10049;59.306;18.090;2023-09-18T10:39:20;0.57;;;0.30;;
19778;SDS011;10049;59.306;18.090;2023-09-18T10:41:52;1.90;;;0.40;;
19778;SDS011;10049;59.306;18.090;2023-09-18T10:44:20;0.60;;;0.30;;
19778;SDS011;10049;59.306;18.090;2023-09-18T10:46:49;0.43;;;0.40;;
19778;SDS011;10049;59.306;18.090;2023-09-18T10:49:17;0.45;;;0.40;;
19778;SDS011;10049;59.306;18.090;2023-09-18T10:51:44;0.35;;;0.30;;
19778;SDS011;10049;59.306;18.090;2023-09-18T10:54:16;2.80;;;0.40;;
19778;SDS011;10049;59.306;18.090;2023-09-18T10:56:45;0.38;;;0.28;;
19778;SDS011;10049;59.306;18.090;2023-09-18T10:59:13;0.75;;;0.55;;
19778;SDS011;10049;59.306;18.090;2023-09-18T11:01:43;0.63;;;0.30;;
19778;SDS011;10049;59.306;18.090;2023-09-18T11:04:17;0.40;;;0.40;;
19778;SDS011;10049;59.306;18.090;2023-09-18T11:07:01;0.30;;;0.30;;
19778;SDS011;10049;59.306;18.090;2023-09-18T11:09:32;3.47;;;0.45;;
19778;SDS011;10049;59.306;18.090;2023-09-18T11:12:08;0.55;;;0.30;;
19778;SDS011;10049;59.306;18.090;2023-09-18T11:14:43;1.27;;;0.30;;
19778;SDS011;10049;59.306;18.090;2023-09-18T11:17:30;0.47;;;0.30;;
19778;SDS011;10049;59.306;18.090;2023-09-18T11:20:02;0.68;;;0.30;;
19778;SDS011;10049;59.306;18.090;2023-09-18T11:22:34;0.55;;;0.38;;
19778;SDS011;10049;59.306;18.090;2023-09-18T11:28:01;0.40;;;0.30;;
19778;SDS011;10049;59.306;18.090;2023-09-18T11:30:32;0.25;;;0.25;;
19778;SDS011;10049;59.306;18.090;2023-09-18T11:33:02;1.35;;;0.40;;
19778;SDS011;10049;59.306;18.090;2023-09-18T11:35:32;1.13;;;0.30;;
19778;SDS011;10049;59.306;18.090;2023-09-18T11:38:04;0.25;;;0.25;;
19778;SDS011;10049;59.306;18.090;2023-09-18T11:40:41;0.68;;;0.30;;
19778;SDS011;10049;59.306;18.090;2023-09-18T11:43:22;0.40;;;0.35;;
19778;SDS011;10049;59.306;18.090;2023-09-18T11:45:52;0.30;;;0.30;;
19778;SDS011;10049;59.306;18.090;2023-09-18T11:48:21;0.32;;;0.30;;
19778;SDS011;10049;59.306;18.090;2023-09-18T11:50:52;1.08;;;0.28;;
19778;SDS011;10049;59.306;18.090;2023-09-18T11:53:23;0.38;;;0.30;;
19778;SDS011;10049;59.306;18.090;2023-09-18T11:55:50;2.67;;;0.40;;
19778;SDS011;10049;59.306;18.090;2023-09-18T11:58:24;0.45;;;0.30;;
19778;SDS011;10049;59.306;18.090;2023-09-18T12:00:53;1.15;;;0.40;;
19778;SDS011;10049;59.306;18.090;2023-09-18T12:03:24;0.30;;;0.30;;
19778;SDS011;10049;59.306;18.090;2023-09-18T12:05:55;0.30;;;0.30;;
19778;SDS011;10049;59.306;18.090;2023-09-18T12:08:23;0.25;;;0.25;;
19778;SDS011;10049;59.306;18.090;2023-09-18T12:10:53;0.70;;;0.20;;
19778;SDS011;10049;59.306;18.090;2023-09-18T12:13:23;0.70;;;0.30;;
19778;SDS011;10049;59.306;18.090;2023-09-18T12:15:57;1.23;;;0.38;;
19778;SDS011;10049;59.306;18.090;2023-09-18T12:18:30;1.02;;;0.50;;
19778;SDS011;10049;59.306;18.090;2023-09-18T12:20:59;1.92;;;0.40;;
19778;SDS011;10049;59.306;18.090;2023-09-18T12:23:29;0.40;;;0.40;;
19778;SDS011;10049;59.306;18.090;2023-09-18T12:26:07;0.52;;;0.30;;
19778;SDS011;10049;59.306;18.090;2023-09-18T12:28:37;1.48;;;0.30;;
19778;SDS011;10049;59.306;18.090;2023-09-18T12:31:05;0.90;;;0.30;;
19778;SDS011;10049;59.306;18.090;2023-09-18T12:33:36;0.70;;;0.38;;
19778;SDS011;10049;59.306;18.090;2023-09-18T12:36:04;0.85;;;0.38;;
19778;SDS011;10049;59.306;18.090;2023-09-18T12:38:33;0.47;;;0.32;;
19778;SDS011;10049;59.306;18.090;2023-09-18T12:41:02;1.15;;;0.43;;
19778;SDS011;10049;59.306;18.090;2023-09-18T12:43:38;3.13;;;0.40;;
19778;SDS011;10049;59.306;18.090;2023-09-18T12:46:06;0.47;;;0.30;;
19778;SDS011;10049;59.306;18.090;2023-09-18T12:48:36;0.45;;;0.38;;
19778;SDS011;10049;59.306;18.090;2023-09-18T12:51:10;0.60;;;0.28;;
19778;SDS011;10049;59.306;18.090;2023-09-18T12:53:39;0.30;;;0.30;;
19778;SDS011;10049;59.306;18.090;2023-09-18T12:56:08;0.68;;;0.30;;
19778;SDS011;10049;59.306;18.090;2023-09-18T12:58:39;0.35;;;0.28;;
19778;SDS011;10049;59.306;18.090;2023-09-18T13:01:08;0.85;;;0.30;;
19778;SDS011;10049;59.306;18.090;2023-09-18T13:03:41;2.15;;;0.40;;
19778;SDS011;10049;59.306;18.090;2023-09-18T13:06:10;1.40;;;0.40;;
19778;SDS011;10049;59.306;18.090;2023-09-18T13:08:38;0.95;;;0.30;;
19778;SDS011;10049;59.306;18.090;2023-09-18T13:11:05;0.47;;;0.40;;
19778;SDS011;10049;59.306;18.090;2023-09-18T13:13:56;2.03;;;0.22;;
19778;SDS011;10049;59.306;18.090;2023-09-18T13:16:25;0.52;;;0.20;;
19778;SDS011;10049;59.306;18.090;2023-09-18T13:18:55;1.23;;;0.52;;
19778;SDS011;10049;59.306;18.090;2023-09-18T13:21:25;3.17;;;0.30;;
19778;SDS011;10049;59.306;18.090;2023-09-18T13:23:53;0.47;;;0.40;;
19778;SDS011;10049;59.306;18.090;2023-09-18T13:26:21;0.95;;;0.30;;
19778;SDS011;10049;59.306;18.090;2023-09-18T13:28:55;1.83;;;0.43;;
19778;SDS011;10049;59.306;18.090;2023-09-18T13:31:23;0.90;;;0.40;;
19778;SDS011;10049;59.306;18.090;2023-09-18T13:33:53;1.55;;;0.38;;
19778;SDS011;10049;59.306;18.090;2023-09-18T13:36:21;1.80;;;0.52;;
19778;SDS011;10049;59.306;18.090;2023-09-18T13:38:50;0.22;;;0.22;;
19778;SDS011;10049;59.306;18.090;2023-09-18T13:41:20;1.73;;;0.40;;
19778;SDS011;10049;59.306;18.090;2023-09-18T13:43:49;0.50;;;0.38;;
19778;SDS011;10049;59.306;18.090;2023-09-18T13:46:22;2.17;;;0.57;;
19778;SDS011;10049;59.306;18.090;2023-09-18T13:48:50;0.40;;;0.40;;
19778;SDS011;10049;59.306;18.090;2023-09-18T13:51:18;0.75;;;0.30;;
19778;SDS011;10049;59.306;18.090;2023-09-18T13:53:45;1.08;;;0.40;;
19778;SDS011;10049;59.306;18.090;2023-09-18T13:56:14;2.03;;;0.50;;
19778;SDS011;10049;59.306;18.090;2023-09-18T13:58:41;1.92;;;0.43;;
19778;SDS011;10049;59.306;18.090;2023-09-18T14:01:10;1.63;;;0.50;;
19778;SDS011;10049;59.306;18.090;2023-09-18T14:03:42;4.03;;;0.30;;
19778;SDS011;10049;59.306;18.090;2023-09-18T14:06:10;0.90;;;0.32;;
19778;SDS011;10049;59.306;18.090;2023-09-18T14:08:38;0.98;;;0.40;;
19778;SDS011;10049;59.306;18.090;2023-09-18T14:11:07;1.58;;;0.50;;
19778;SDS011;10049;59.306;18.090;2023-09-18T14:13:34;1.45;;;0.50;;
19778;SDS011;10049;59.306;18.090;2023-09-18T14:16:03;0.60;;;0.40;;
19778;SDS011;10049;59.306;18.090;2023-09-18T14:18:31;0.30;;;0.25;;
19778;SDS011;10049;59.306;18.090;2023-09-18T14:21:03;0.30;;;0.20;;
19778;SDS011;10049;59.306;18.090;2023-09-18T14:23:31;3.13;;;0.30;;
19778;SDS011;10049;59.306;18.090;2023-09-18T14:26:00;0.40;;;0.38;;
19778;SDS011;10049;59.306;18.090;2023-09-18T14:28:29;0.57;;;0.40;;
19778;SDS011;10049;59.306;18.090;2023-09-18T14:30:57;0.73;;;0.30;;
19778;SDS011;10049;59.306;18.090;2023-09-18T14:33:27;0.38;;;0.32;;
19778;SDS011;10049;59.306;18.090;2023-09-18T14:35:55;0.95;;;0.40;;
19778;SDS011;10049;59.306;18.090;2023-09-18T14:38:24;0.93;;;0.43;;
19778;SDS011;10049;59.306;18.090;2023-09-18T14:40:53;1.52;;;0.50;;
19778;SDS011;10049;59.306;18.090;2023-09-18T14:43:26;1.17;;;0.50;;
19778;SDS011;10049;59.306;18.090;2023-09-18T14:45:54;0.47;;;0.28;;
19778;SDS011;10049;59.306;18.090;2023-09-18T14:48:22;0.40;;;0.30;;
19778;SDS011;10049;59.306;18.090;2023-09-18T14:50:53;1.17;;;0.40;;